Amorea — SVAC5 — position and weather

sailwx.info

Track history (hours):
 
Tides and Currents Weather Stations Pressure Air Temp Water Temp Dewpoint Dewpoint Depression Visibility Wind Speed Wind Dir Waves Ship Positions

Amorea

Last reported at 2018-Feb-24 19:02 UTC. Time now 2018-Feb-25 23:53 UTC.
Position N 40°29' W 073°35'.

Length 249 m; draft 11.8 m.

Type: Ship. MMSI: 240797978.

Date/timePositionNaut miles runAvg speedWind from/ knotsBaromVisibWave heightAir tempDewpointWater temp
2018-Feb-24 19:02N 40°29' W 073°35'0 0.0
2018-Feb-24 18:59N 40°29' W 073°35'0 0.0
2018-Feb-24 14:38N 40°29' W 073°35'0 0.1
2018-Feb-24 14:29N 40°29' W 073°35'  
2018-Feb-22 09:53N 40°29' W 073°35'0 0.0
2018-Feb-21 06:17N 40°29' W 073°35'0 0.0
2018-Feb-20 06:59N 40°29' W 073°35'0 0.0
2018-Feb-18 22:05N 40°29' W 073°35'0 0.0
2018-Feb-18 18:41N 40°29' W 073°35'0 0.0
2018-Feb-18 17:41N 40°29' W 073°35'0 0.0
2018-Feb-18 09:32N 40°29' W 073°35'0 0.1
2018-Feb-18 08:32N 40°29' W 073°35'0 0.2
2018-Feb-18 08:10N 40°29' W 073°35'0 2.2
2018-Feb-18 08:00N 40°29' W 073°34'2 4.0
2018-Feb-18 07:30N 40°29' W 073°32'86 7.3
2018-Feb-17 19:41N 41°15' W 071°55'314.7
2018-Feb-17 19:28N 41°14' W 071°59'714.4
2018-Feb-17 19:00N 41°14' W 072°08'714.7
2018-Feb-17 18:30N 41°12' W 072°17'714.0
2018-Feb-17 18:00N 41°09' W 072°25'713.2
2018-Feb-17 17:30N 41°06' W 072°33'611.5
2018-Feb-17 17:00N 41°02' W 072°38'2 0.1
2018-Feb-16 16:25N 41°00' W 072°39'1 1.7
2018-Feb-16 15:58N 41°00' W 072°40'3 4.5
2018-Feb-16 15:18N 41°03' W 072°38'2 6.9
2018-Feb-16 15:00N 41°04' W 072°35'612.0
2018-Feb-16 14:30N 41°07' W 072°29'714.2
2018-Feb-16 14:00N 41°11' W 072°21'714.2
2018-Feb-16 13:30N 41°13' W 072°11'913.7
2018-Feb-16 12:51N 41°14' W 071°60'  
Track history (hours):
 
Tides and Currents Weather Stations Pressure Air Temp Water Temp Dewpoint Dewpoint Depression Visibility Wind Speed Wind Dir Waves Ship Positions

Amorea

Last reported at 2018-Feb-24 19:02 UTC. Time now 2018-Feb-25 23:53 UTC.
Position N 40°29' W 073°35'.

Length 249 m; draft 11.8 m.

Type: Ship. MMSI: 240797978.

Date/timePositionNaut miles runAvg speedWind from/ knotsBaromVisibWave heightAir tempDewpointWater temp
2018-Feb-24 19:02N 40°29' W 073°35'0 0.0
2018-Feb-24 18:59N 40°29' W 073°35'0 0.0
2018-Feb-24 14:38N 40°29' W 073°35'0 0.1
2018-Feb-24 14:29N 40°29' W 073°35'  
2018-Feb-22 09:53N 40°29' W 073°35'0 0.0
2018-Feb-21 06:17N 40°29' W 073°35'0 0.0
2018-Feb-20 06:59N 40°29' W 073°35'0 0.0
2018-Feb-18 22:05N 40°29' W 073°35'0 0.0
2018-Feb-18 18:41N 40°29' W 073°35'0 0.0
2018-Feb-18 17:41N 40°29' W 073°35'0 0.0
2018-Feb-18 09:32N 40°29' W 073°35'0 0.1
2018-Feb-18 08:32N 40°29' W 073°35'0 0.2
2018-Feb-18 08:10N 40°29' W 073°35'0 2.2
2018-Feb-18 08:00N 40°29' W 073°34'2 4.0
2018-Feb-18 07:30N 40°29' W 073°32'86 7.3
2018-Feb-17 19:41N 41°15' W 071°55'314.7
2018-Feb-17 19:28N 41°14' W 071°59'714.4
2018-Feb-17 19:00N 41°14' W 072°08'714.7
2018-Feb-17 18:30N 41°12' W 072°17'714.0
2018-Feb-17 18:00N 41°09' W 072°25'713.2
2018-Feb-17 17:30N 41°06' W 072°33'611.5
2018-Feb-17 17:00N 41°02' W 072°38'2 0.1
2018-Feb-16 16:25N 41°00' W 072°39'1 1.7
2018-Feb-16 15:58N 41°00' W 072°40'3 4.5
2018-Feb-16 15:18N 41°03' W 072°38'2 6.9
2018-Feb-16 15:00N 41°04' W 072°35'612.0
2018-Feb-16 14:30N 41°07' W 072°29'714.2
2018-Feb-16 14:00N 41°11' W 072°21'714.2
2018-Feb-16 13:30N 41°13' W 072°11'913.7
2018-Feb-16 12:51N 41°14' W 071°60'  

Dump ship's entire track history